Airfield :
LOGIN :

Register | Disclaimer

   EN    FR    IT 

 










Legend :    VFR   Marginal VFR   IFR   Intensive IFR   Very Intensive IFR
Visi :
Ceiling :
>= 8 km
>= 3000ft
5 to 8 km
1000 to 3000 ft
1500m to 5 km
500 to 1000 ft
800 to 1500m
200 to 500 ft
< 800m
< 200 ft
Symbols :   Thunderstorms  Fog  Heavy snow  Heavy precipitations  Wind > 20 kt
SIGMETs :     Misc.  Thunderstorms  Icing  Turbulence  Mountain Waves  Volcanic Ashes







- Airport Elevation : 142 ft
- IATA code : ALC


LEAL - Alicante

CURRENT METAR :
  • 232000Z 32008KT 9999 FEW030 13/02 Q1012 NOSIG

EXPIRED METARs :
  • 231930Z 00000KT 9999 FEW035 12/06 Q1012 NOSIG
  • 231900Z 00000KT 9999 FEW035 13/05 Q1011 NOSIG
  • 231830Z VRB01KT 9999 FEW035 13/05 Q1011 NOSIG
  • 231800Z 17004KT 140V230 9999 FEW035 13/04 Q1011 NOSIG
  • 231730Z 17008KT 110V230 CAVOK 14/04 Q1011 NOSIG
  • 231700Z 18010KT 150V230 9999 FEW040 15/04 Q1010 NOSIG

TAF TAF LEAL
Valid from the 23 at 18:00 until the 24 at 18:00 UTC


231700Z 2318/2418 18010KT 9999 FEW040 TX18/2412Z TN07/2406Z
BECMG 2320/2323 31015KT
BECMG 2401/2404 30008KT
BECMG 2411/2415 17012KT
No reported NOTAMs for that airfield.
2 SIGMETs reported for the Barcelona FIR (LECB) :
 
Severe turbulence
LECB SIGMET 2 VALID 232000/232400 LEVA
LECB BARCELONA FIR SEV TURB FCST WI N4230 E003 - N3850 E00130 - N3930 W00110 - N4250 E00002 FL180/230 STNR NC=
Severe turbulence
LECB SIGMET 1 VALID 231626/232000 LEVA
LECB BARCELONA FIR SEV TURB FCST WI N3650 W00150 - N3650 W001 - N4230 E00220 - N43 E001 FL180/220 STNR NC=



MET'MAP, your aeronautical weather chart ! - Copyright ORBIFLY December 2007 - Disclaimer

ORBIFLY MET'MAP TEAM :

Programming & Development : Alexandra Zaïnal
Concept & Development : Baudouin d'Aumeries
Co-Development & Prog : Marc-Olivier Méhu
Technical & hardware support : Manuel Goepfert

Contact : metmap@orbifly.com




SOURCES & CREDITS :

   NOAA